createdAt,value
2023-01-10T00:02:19.097Z,89.61
2023-01-10T00:04:45.526Z,89.93
2023-01-10T00:07:12.128Z,89.67
2023-01-10T00:09:38.490Z,89.49
2023-01-10T00:12:23.997Z,89.89
2023-01-10T00:14:50.726Z,89.68
2023-01-10T00:17:18.641Z,89.26
2023-01-10T00:19:45.064Z,89.66
2023-01-10T00:22:11.907Z,89.35
2023-01-10T00:24:38.999Z,89.69
2023-01-10T00:27:05.510Z,89.55
2023-01-10T00:29:32.037Z,89.34
2023-01-10T00:31:58.521Z,89.22
2023-01-10T00:34:25.111Z,89.16
2023-01-10T00:36:51.739Z,89.20
2023-01-10T00:39:20.775Z,89.24
2023-01-10T00:42:06.202Z,89.06
2023-01-10T00:44:32.665Z,89.15
2023-01-10T00:46:59.116Z,89.33
2023-01-10T00:49:25.515Z,88.92
2023-01-10T00:51:51.975Z,88.75
2023-01-10T00:54:18.514Z,88.55
2023-01-10T00:56:44.966Z,88.28
2023-01-10T00:59:11.378Z,87.99
2023-01-10T01:01:37.907Z,88.25
2023-01-10T01:04:04.541Z,88.02
2023-01-10T01:06:30.994Z,87.81
2023-01-10T01:08:57.694Z,87.59
2023-01-10T01:11:24.775Z,87.35
2023-01-10T01:13:51.808Z,87.30
2023-01-10T01:16:18.492Z,86.81
2023-01-10T01:18:45.073Z,86.82
2023-01-10T01:21:11.564Z,86.75
2023-01-10T01:23:38.201Z,87.20
2023-01-10T01:26:06.258Z,86.98
2023-01-10T01:28:32.792Z,87.00
2023-01-10T01:30:59.427Z,87.26
2023-01-10T01:33:26.161Z,88.55
2023-01-10T01:35:52.537Z,88.56
2023-01-10T01:38:19.061Z,89.27
2023-01-10T01:40:45.540Z,89.31
2023-01-10T01:43:26.876Z,89.94
2023-01-10T01:45:54.151Z,89.06
2023-01-10T01:48:27.963Z,89.26
2023-01-10T01:51:17.071Z,89.49
2023-01-10T01:53:48.268Z,89.15
2023-01-10T01:56:24.502Z,89.15
2023-01-10T01:58:57.151Z,89.24
2023-01-10T02:01:24.077Z,88.62
2023-01-10T02:03:56.007Z,88.73
2023-01-10T02:06:24.787Z,88.51
2023-01-10T02:09:03.197Z,88.95
2023-01-10T02:11:30.675Z,87.98
2023-01-10T02:13:57.891Z,88.14
2023-01-10T02:16:24.297Z,87.76
2023-01-10T02:18:50.798Z,87.75
2023-01-10T02:21:41.892Z,88.43
2023-01-10T02:24:17.043Z,88.34
2023-01-10T02:27:02.333Z,88.52
2023-01-10T02:29:44.257Z,87.92
2023-01-10T02:33:00.232Z,88.31
2023-01-10T02:35:51.675Z,87.79
2023-01-10T02:38:36.270Z,87.79
2023-01-10T02:41:17.864Z,87.53
2023-01-10T02:43:54.280Z,87.60
2023-01-10T02:46:27.640Z,87.24
2023-01-10T02:48:55.206Z,86.76
2023-01-10T02:51:29.703Z,87.26
2023-01-10T02:54:12.175Z,87.89
2023-01-10T02:57:18.490Z,87.73
2023-01-10T02:59:56.475Z,87.46
2023-01-10T03:02:44.408Z,87.01
2023-01-10T03:05:26.147Z,87.40
2023-01-10T03:08:25.345Z,87.83
2023-01-10T03:10:59.885Z,87.37
2023-01-10T03:13:38.068Z,87.80
2023-01-10T03:16:07.921Z,87.24
2023-01-10T03:19:01.863Z,87.48
2023-01-10T03:21:31.487Z,86.88
2023-01-10T03:24:10.550Z,87.74
2023-01-10T03:26:44.886Z,86.93
2023-01-10T03:29:14.170Z,86.48
2023-01-10T03:31:48.024Z,86.86
2023-01-10T03:34:14.600Z,86.45
2023-01-10T03:36:56.251Z,87.21
2023-01-10T03:39:51.921Z,87.23
2023-01-10T03:43:04.428Z,86.93
2023-01-10T03:45:36.801Z,86.70
2023-01-10T03:48:07.052Z,86.53
2023-01-10T03:50:33.734Z,87.20
2023-01-10T03:53:00.363Z,86.41
2023-01-10T03:55:29.916Z,87.22
2023-01-10T03:57:56.354Z,87.31
2023-01-10T04:00:24.168Z,87.35
2023-01-10T04:02:50.834Z,87.62
2023-01-10T04:05:17.287Z,87.98
2023-01-10T04:07:43.751Z,87.65
2023-01-10T04:10:10.761Z,87.94
2023-01-10T04:12:37.211Z,87.91
2023-01-10T04:15:04.312Z,88.71
2023-01-10T04:17:30.757Z,88.88
2023-01-10T04:19:57.149Z,89.05
2023-01-10T04:22:23.573Z,89.25
2023-01-10T04:24:51.896Z,89.38
2023-01-10T04:27:18.880Z,89.29
2023-01-10T04:29:45.262Z,89.40
2023-01-10T04:32:12.164Z,89.35
2023-01-10T04:34:38.654Z,89.26
2023-01-10T04:37:05.303Z,89.58
2023-01-10T04:39:31.782Z,89.62
2023-01-10T04:41:58.230Z,90.18
2023-01-10T04:44:24.841Z,90.32
2023-01-10T04:46:51.228Z,90.22
2023-01-10T04:49:17.893Z,90.39
2023-01-10T04:51:44.287Z,90.22
2023-01-10T04:54:10.699Z,90.39
2023-01-10T04:56:37.135Z,90.59
2023-01-10T04:59:06.432Z,90.48
2023-01-10T05:01:33.911Z,90.48
2023-01-10T05:04:00.348Z,90.51
2023-01-10T05:06:26.737Z,90.66
2023-01-10T05:08:53.159Z,90.50
2023-01-10T05:11:19.600Z,90.57
2023-01-10T05:13:47.908Z,90.47
2023-01-10T05:16:14.941Z,90.18
2023-01-10T05:18:41.710Z,90.00
2023-01-10T05:21:13.442Z,89.76
2023-01-10T05:23:39.961Z,89.50
2023-01-10T05:26:11.873Z,89.22
2023-01-10T05:28:39.547Z,89.27
2023-01-10T05:31:07.511Z,89.16
2023-01-10T05:33:34.023Z,88.78
2023-01-10T05:36:05.123Z,89.09
2023-01-10T05:38:32.798Z,88.66
2023-01-10T05:40:59.826Z,88.11
2023-01-10T05:43:26.695Z,88.41
2023-01-10T05:45:53.423Z,88.00
2023-01-10T05:48:22.860Z,87.71
2023-01-10T05:50:50.873Z,87.06
2023-01-10T05:53:18.246Z,86.89
2023-01-10T05:55:51.998Z,86.88
2023-01-10T05:58:18.453Z,87.24
2023-01-10T06:00:44.829Z,87.46
2023-01-10T06:03:11.226Z,87.58
2023-01-10T06:05:40.746Z,87.37
2023-01-10T06:08:07.307Z,87.30
2023-01-10T06:10:33.715Z,87.54
2023-01-10T06:13:00.171Z,87.50
2023-01-10T06:15:26.692Z,87.39
2023-01-10T06:17:53.095Z,87.42
2023-01-10T06:20:19.576Z,87.52
2023-01-10T06:22:46.131Z,87.93
2023-01-10T06:25:13.840Z,88.37
2023-01-10T06:27:41.629Z,88.63
2023-01-10T06:30:09.582Z,89.13
2023-01-10T06:32:36.364Z,89.19
2023-01-10T06:35:03.022Z,89.53
2023-01-10T06:37:29.448Z,89.42
2023-01-10T06:39:55.998Z,89.45
2023-01-10T06:42:22.395Z,89.36
2023-01-10T06:44:48.822Z,89.12
2023-01-10T06:47:15.336Z,89.16
2023-01-10T06:49:41.761Z,89.03
2023-01-10T06:52:08.174Z,89.04
2023-01-10T06:54:34.552Z,89.34
2023-01-10T06:57:00.985Z,89.32
2023-01-10T06:59:27.587Z,89.33
2023-01-10T07:01:54.080Z,89.32
2023-01-10T07:04:20.908Z,89.54
2023-01-10T07:06:47.331Z,89.60
2023-01-10T07:09:13.812Z,89.93
2023-01-10T07:11:40.207Z,89.88
2023-01-10T07:14:06.991Z,90.16
2023-01-10T07:16:33.395Z,90.40
2023-01-10T07:18:59.843Z,90.67
2023-01-10T07:21:26.475Z,90.67
2023-01-10T07:23:52.899Z,90.59
2023-01-10T07:26:19.552Z,90.28
2023-01-10T07:28:50.955Z,90.01
2023-01-10T07:31:19.311Z,90.18
2023-01-10T07:33:45.831Z,89.88
2023-01-10T07:36:12.663Z,89.55
2023-01-10T07:38:39.271Z,89.22
2023-01-10T07:41:06.298Z,89.05
2023-01-10T07:43:33.876Z,89.03
2023-01-10T07:46:02.167Z,89.47
2023-01-10T07:48:28.855Z,89.42
2023-01-10T07:50:57.414Z,89.90
2023-01-10T07:53:24.483Z,90.15
2023-01-10T07:55:50.927Z,90.21
2023-01-10T07:58:17.333Z,90.43
2023-01-10T08:00:43.993Z,90.52
2023-01-10T08:03:11.100Z,90.50
2023-01-10T08:05:37.604Z,90.50
2023-01-10T08:08:06.114Z,90.40
2023-01-10T08:10:34.616Z,90.06
2023-01-10T08:13:13.129Z,89.64
2023-01-10T08:15:45.445Z,89.36
2023-01-10T08:18:11.878Z,89.19
2023-01-10T08:20:38.713Z,89.12
2023-01-10T08:23:05.404Z,88.90
2023-01-10T08:25:31.860Z,88.56
2023-01-10T08:27:58.279Z,88.23
2023-01-10T08:30:24.826Z,88.05
2023-01-10T08:32:52.301Z,87.70
2023-01-10T08:35:18.777Z,87.56
2023-01-10T08:37:45.188Z,87.16
2023-01-10T08:40:12.055Z,86.93
2023-01-10T08:42:38.441Z,86.55
2023-01-10T08:45:05.791Z,86.70
2023-01-10T08:47:32.336Z,86.62
2023-01-10T08:49:58.834Z,86.72
2023-01-10T08:52:25.243Z,86.38
2023-01-10T08:54:54.655Z,86.27
2023-01-10T08:57:21.205Z,85.78
2023-01-10T08:59:47.605Z,85.89
2023-01-10T09:02:14.320Z,85.87
2023-01-10T09:04:40.814Z,85.33
2023-01-10T09:07:07.317Z,85.11
2023-01-10T09:09:33.690Z,84.73
2023-01-10T09:12:00.206Z,84.35
2023-01-10T09:14:26.617Z,84.57
2023-01-10T09:16:53.026Z,84.44
2023-01-10T09:19:37.810Z,84.91
2023-01-10T09:22:04.318Z,84.69
2023-01-10T09:24:31.051Z,85.06
2023-01-10T09:26:57.459Z,84.90
2023-01-10T09:29:23.971Z,84.81
2023-01-10T09:31:50.354Z,85.07
2023-01-10T09:34:16.972Z,84.55
2023-01-10T09:36:43.359Z,84.54
2023-01-10T09:39:09.740Z,84.21
2023-01-10T09:42:09.950Z,84.22
2023-01-10T09:45:16.806Z,84.38
2023-01-10T09:47:55.814Z,83.66
2023-01-10T09:50:27.835Z,83.35
2023-01-10T09:53:01.627Z,83.20
2023-01-10T09:55:37.014Z,83.69
2023-01-10T09:58:13.040Z,83.31
2023-01-10T10:01:10.942Z,82.56
2023-01-10T10:03:47.532Z,82.35
2023-01-10T10:06:14.546Z,81.40
2023-01-10T10:08:46.577Z,81.83
2023-01-10T10:11:25.238Z,81.28
2023-01-10T10:13:59.912Z,81.67
2023-01-10T10:16:54.768Z,81.26
2023-01-10T10:19:46.316Z,81.32
2023-01-10T10:23:01.098Z,81.12
2023-01-10T10:26:06.713Z,81.59
2023-01-10T10:28:57.666Z,81.34
2023-01-10T10:31:45.928Z,80.92
2023-01-10T10:34:38.990Z,81.29
2023-01-10T10:37:26.814Z,81.39
2023-01-10T10:40:05.049Z,81.37
2023-01-10T10:42:39.342Z,81.33
2023-01-10T10:45:10.576Z,81.00
2023-01-10T10:47:42.724Z,81.25
2023-01-10T10:50:27.387Z,81.91
2023-01-10T10:52:53.854Z,81.29
2023-01-10T10:55:29.755Z,81.44
2023-01-10T10:58:00.502Z,80.94
2023-01-10T11:00:29.461Z,80.99
2023-01-10T11:03:13.434Z,81.17
2023-01-10T11:05:41.844Z,80.33
2023-01-10T11:08:15.854Z,80.23
2023-01-10T11:10:52.469Z,80.29
2023-01-10T11:13:34.048Z,80.15
2023-01-10T11:16:05.822Z,80.28
2023-01-10T11:18:33.685Z,79.64
2023-01-10T11:21:11.588Z,80.35
2023-01-10T11:23:41.941Z,79.88
2023-01-10T11:26:34.386Z,79.81
2023-01-10T11:29:14.483Z,80.25
2023-01-10T11:31:41.915Z,79.86
2023-01-10T11:34:33.131Z,80.31
2023-01-10T11:37:03.340Z,79.92
2023-01-10T11:39:30.668Z,79.89
2023-01-10T11:41:59.352Z,79.34
2023-01-10T11:44:28.835Z,79.67
2023-01-10T11:47:01.799Z,79.82
2023-01-10T11:49:38.874Z,80.19
2023-01-10T11:52:26.360Z,80.25
2023-01-10T11:55:00.432Z,79.96
2023-01-10T11:57:30.683Z,79.73
2023-01-10T12:00:09.941Z,79.79
2023-01-10T12:02:44.823Z,79.76
2023-01-10T12:05:19.738Z,79.47
2023-01-10T12:07:56.403Z,79.91
2023-01-10T12:10:25.244Z,79.59
2023-01-10T12:12:58.143Z,80.41
2023-01-10T12:15:26.212Z,79.71
2023-01-10T12:17:53.583Z,79.62
2023-01-10T12:20:20.075Z,79.35
2023-01-10T12:22:49.963Z,79.24
2023-01-10T12:25:20.877Z,79.13
2023-01-10T12:27:50.455Z,78.69
2023-01-10T12:30:23.921Z,78.77
2023-01-10T12:32:53.439Z,78.58
2023-01-10T12:35:34.372Z,78.79
2023-01-10T12:38:44.279Z,78.44
2023-01-10T12:41:35.810Z,78.13
2023-01-10T12:44:12.062Z,78.29
2023-01-10T12:47:09.217Z,78.25
2023-01-10T12:49:46.300Z,77.75
2023-01-10T12:52:23.106Z,77.26
2023-01-10T12:54:49.707Z,76.86
2023-01-10T12:57:35.928Z,77.62
2023-01-10T13:00:06.812Z,77.25
2023-01-10T13:02:43.770Z,77.17
2023-01-10T13:05:30.032Z,77.00
2023-01-10T13:08:03.357Z,76.54
2023-01-10T13:10:31.253Z,75.66
2023-01-10T13:13:20.781Z,76.46
2023-01-10T13:16:02.977Z,76.20
2023-01-10T13:18:31.540Z,75.51
2023-01-10T13:21:18.568Z,75.54
2023-01-10T13:24:00.034Z,74.91
2023-01-10T13:26:26.971Z,74.11
2023-01-10T13:28:59.193Z,74.99
2023-01-10T13:31:31.705Z,74.79
2023-01-10T13:34:02.922Z,74.31
2023-01-10T13:36:37.723Z,74.31
2023-01-10T13:39:08.965Z,74.32
2023-01-10T13:42:16.149Z,74.90
2023-01-10T13:45:00.635Z,74.68
2023-01-10T13:47:39.319Z,74.59
2023-01-10T13:50:42.293Z,74.50
2023-01-10T13:53:12.709Z,74.67
2023-01-10T13:55:39.096Z,74.70
2023-01-10T13:58:14.345Z,74.73
2023-01-10T14:01:01.886Z,74.47
2023-01-10T14:03:51.794Z,75.43
2023-01-10T14:06:20.920Z,75.42
2023-01-10T14:08:57.745Z,76.24
2023-01-10T14:11:27.177Z,75.87
2023-01-10T14:13:57.589Z,75.83
2023-01-10T14:16:35.533Z,76.15
2023-01-10T14:19:05.022Z,76.03
2023-01-10T14:21:38.105Z,75.82
2023-01-10T14:24:04.838Z,75.77
2023-01-10T14:26:36.851Z,76.07
2023-01-10T14:29:15.904Z,76.59
2023-01-10T14:31:47.630Z,76.67
2023-01-10T14:34:26.710Z,76.97
2023-01-10T14:37:01.539Z,76.55
2023-01-10T14:39:29.396Z,76.10
2023-01-10T14:42:02.651Z,76.09
2023-01-10T14:44:34.979Z,75.85
2023-01-10T14:47:04.704Z,75.56
2023-01-10T14:49:36.152Z,75.94
2023-01-10T14:52:24.152Z,76.20
2023-01-10T14:55:22.556Z,75.48
2023-01-10T14:58:01.244Z,75.82
2023-01-10T15:00:33.787Z,75.40
2023-01-10T15:03:03.827Z,74.99
2023-01-10T15:05:35.114Z,75.20
2023-01-10T15:08:16.935Z,75.25
2023-01-10T15:10:47.173Z,75.02
2023-01-10T15:13:18.723Z,74.96
2023-01-10T15:15:47.748Z,75.20
2023-01-10T15:18:26.265Z,75.34
2023-01-10T15:20:53.630Z,75.47
2023-01-10T15:23:20.861Z,75.45
2023-01-10T15:25:57.267Z,75.40
2023-01-10T15:28:23.764Z,75.26
2023-01-10T15:30:50.811Z,75.19
2023-01-10T15:33:22.772Z,75.39
2023-01-10T15:35:49.330Z,75.24
2023-01-10T15:38:27.247Z,76.04
2023-01-10T15:41:02.443Z,75.68
2023-01-10T15:43:34.255Z,75.19
2023-01-10T15:46:03.236Z,75.50
2023-01-10T15:48:43.691Z,75.29
2023-01-10T15:51:26.030Z,75.86
2023-01-10T15:54:04.682Z,76.00
2023-01-10T15:56:33.246Z,75.85
2023-01-10T15:59:01.134Z,76.17
2023-01-10T16:01:29.131Z,76.14
2023-01-10T16:04:02.057Z,76.91
2023-01-10T16:06:36.897Z,76.65
2023-01-10T16:09:17.529Z,76.46
2023-01-10T16:12:10.828Z,76.47
2023-01-10T16:14:37.899Z,76.08
2023-01-10T16:17:05.926Z,75.91
2023-01-10T16:19:32.349Z,75.75
2023-01-10T16:22:00.082Z,76.06
2023-01-10T16:24:35.933Z,75.94
2023-01-10T16:27:05.931Z,75.74
2023-01-10T16:29:33.560Z,75.63
2023-01-10T16:32:00.172Z,75.42
2023-01-10T16:34:26.574Z,75.66
2023-01-10T16:36:53.299Z,75.44
2023-01-10T16:39:22.105Z,75.50
2023-01-10T16:42:07.747Z,75.56
2023-01-10T16:44:35.023Z,75.56
2023-01-10T16:47:04.343Z,75.51
2023-01-10T16:49:32.406Z,75.63
2023-01-10T16:51:59.508Z,75.68
2023-01-10T16:54:25.947Z,75.36
2023-01-10T16:56:52.386Z,75.41
2023-01-10T16:59:20.482Z,75.46
2023-01-10T17:01:52.055Z,75.69
2023-01-10T17:04:23.909Z,75.83
2023-01-10T17:06:50.828Z,75.68
2023-01-10T17:09:27.508Z,75.96
2023-01-10T17:12:01.667Z,75.52
2023-01-10T17:14:30.140Z,75.48
2023-01-10T17:16:56.599Z,75.80
2023-01-10T17:19:23.043Z,75.80
2023-01-10T17:21:50.890Z,75.76
2023-01-10T17:24:17.507Z,75.71
2023-01-10T17:26:44.042Z,75.40
2023-01-10T17:29:10.506Z,75.50
2023-01-10T17:31:37.143Z,75.72
2023-01-10T17:34:03.746Z,75.61
2023-01-10T17:36:32.443Z,75.64
2023-01-10T17:38:59.649Z,75.67
2023-01-10T17:41:26.062Z,75.50
2023-01-10T17:43:52.480Z,75.33
2023-01-10T17:46:18.936Z,75.51
2023-01-10T17:48:45.352Z,75.28
2023-01-10T17:51:13.178Z,75.32
2023-01-10T17:53:40.594Z,75.31
2023-01-10T17:56:07.898Z,75.25
2023-01-10T17:58:34.810Z,74.94
2023-01-10T18:01:01.334Z,74.63
2023-01-10T18:03:27.964Z,74.77
2023-01-10T18:05:56.395Z,74.75
2023-01-10T18:08:23.357Z,74.53
2023-01-10T18:10:50.498Z,74.50
2023-01-10T18:13:20.004Z,74.56
2023-01-10T18:15:49.863Z,74.51
2023-01-10T18:18:16.885Z,74.05
2023-01-10T18:20:44.785Z,73.97
2023-01-10T18:23:24.846Z,73.74
2023-01-10T18:25:53.281Z,73.55
2023-01-10T18:28:23.520Z,73.47
2023-01-10T18:30:56.058Z,73.47
2023-01-10T18:33:25.620Z,73.02
2023-01-10T18:35:52.199Z,73.06
2023-01-10T18:38:19.139Z,72.79
2023-01-10T18:40:47.208Z,72.52
2023-01-10T18:43:16.542Z,72.59
2023-01-10T18:45:44.878Z,72.21
2023-01-10T18:48:12.235Z,72.33
2023-01-10T18:50:38.721Z,72.16
2023-01-10T18:53:05.445Z,71.64
2023-01-10T18:55:32.194Z,71.66
2023-01-10T18:57:58.991Z,71.86
2023-01-10T19:00:25.608Z,71.78
2023-01-10T19:02:54.158Z,71.38
2023-01-10T19:05:21.346Z,70.79
2023-01-10T19:07:47.861Z,70.77
2023-01-10T19:10:14.325Z,70.46
2023-01-10T19:12:42.277Z,70.54
2023-01-10T19:15:09.730Z,70.31
2023-01-10T19:17:36.128Z,70.05
2023-01-10T19:20:03.124Z,69.67
2023-01-10T19:22:29.532Z,69.50
2023-01-10T19:24:56.084Z,69.34
2023-01-10T19:27:22.466Z,68.82
2023-01-10T19:29:49.838Z,68.63
2023-01-10T19:32:16.514Z,68.73
2023-01-10T19:34:45.461Z,68.17
2023-01-10T19:37:12.706Z,68.23
2023-01-10T19:39:39.138Z,67.83
2023-01-10T19:42:05.866Z,67.65
2023-01-10T19:44:32.324Z,67.56
2023-01-10T19:46:59.132Z,67.54
2023-01-10T19:49:25.625Z,67.42
2023-01-10T19:51:53.646Z,67.89
2023-01-10T19:54:20.268Z,67.83
2023-01-10T19:56:46.710Z,68.14
2023-01-10T19:59:17.621Z,68.83
2023-01-10T20:01:44.299Z,69.65
2023-01-10T20:04:10.838Z,69.72
2023-01-10T20:06:39.197Z,70.83
2023-01-10T20:09:07.219Z,72.01
2023-01-10T20:11:37.876Z,72.79
2023-01-10T20:14:11.903Z,74.11
2023-01-10T20:16:38.453Z,74.63
2023-01-10T20:19:08.896Z,74.81
2023-01-10T20:21:37.035Z,76.04
2023-01-10T20:24:07.987Z,76.56
2023-01-10T20:26:34.862Z,77.10
2023-01-10T20:29:02.747Z,77.92
2023-01-10T20:31:29.689Z,78.34
2023-01-10T20:33:56.138Z,79.50
2023-01-10T20:36:24.255Z,79.81
2023-01-10T20:38:51.048Z,79.85
2023-01-10T20:41:22.835Z,80.78
2023-01-10T20:43:49.861Z,81.60
2023-01-10T20:46:20.214Z,82.18
2023-01-10T20:48:48.046Z,82.59
2023-01-10T20:51:23.585Z,83.33
2023-01-10T20:53:51.048Z,83.37
2023-01-10T20:56:26.026Z,83.66
2023-01-10T20:58:53.480Z,84.08
2023-01-10T21:01:33.059Z,84.16
2023-01-10T21:04:00.816Z,84.87
2023-01-10T21:06:27.420Z,84.64
2023-01-10T21:08:53.940Z,84.93
2023-01-10T21:11:20.879Z,85.14
2023-01-10T21:13:47.454Z,85.10
2023-01-10T21:16:16.149Z,85.04
2023-01-10T21:18:44.363Z,84.85
2023-01-10T21:21:13.501Z,85.05
2023-01-10T21:23:40.682Z,84.99
2023-01-10T21:26:10.781Z,85.44
2023-01-10T21:28:42.226Z,85.13
2023-01-10T21:31:10.299Z,85.29
2023-01-10T21:33:37.253Z,85.86
2023-01-10T21:36:04.397Z,85.48
2023-01-10T21:38:32.316Z,85.89
2023-01-10T21:41:07.823Z,86.45
2023-01-10T21:43:34.297Z,86.13
2023-01-10T21:46:01.511Z,86.40
2023-01-10T21:48:28.884Z,86.62
2023-01-10T21:50:55.664Z,87.04
2023-01-10T21:53:22.778Z,87.26
2023-01-10T21:55:49.317Z,87.83
2023-01-10T21:58:15.788Z,87.57
2023-01-10T22:00:42.248Z,87.90
2023-01-10T22:03:08.875Z,88.37
2023-01-10T22:05:35.242Z,88.48
2023-01-10T22:08:01.673Z,88.38
2023-01-10T22:10:28.101Z,88.50
2023-01-10T22:12:54.518Z,89.06
2023-01-10T22:15:20.999Z,89.33
2023-01-10T22:17:48.234Z,89.07
2023-01-10T22:20:16.670Z,88.97
2023-01-10T22:22:43.073Z,89.29
2023-01-10T22:25:09.999Z,89.54
2023-01-10T22:27:36.408Z,89.88
2023-01-10T22:30:02.999Z,89.99
2023-01-10T22:32:29.384Z,90.13
2023-01-10T22:34:55.807Z,90.15
2023-01-10T22:37:22.211Z,90.23
2023-01-10T22:39:48.811Z,90.49
2023-01-10T22:42:15.294Z,90.27
2023-01-10T22:44:41.767Z,90.67
2023-01-10T22:47:09.976Z,90.33
2023-01-10T22:49:36.453Z,90.85
2023-01-10T22:52:02.949Z,90.51
2023-01-10T22:54:29.351Z,91.00
2023-01-10T22:56:55.782Z,90.93
2023-01-10T22:59:22.200Z,91.08
2023-01-10T23:01:48.643Z,91.08
2023-01-10T23:04:16.753Z,90.98
2023-01-10T23:06:43.280Z,91.00
2023-01-10T23:09:09.789Z,90.96
2023-01-10T23:11:36.210Z,91.14
2023-01-10T23:14:02.704Z,91.37
2023-01-10T23:16:32.634Z,91.70
2023-01-10T23:19:00.425Z,91.26
2023-01-10T23:21:29.206Z,91.67
2023-01-10T23:23:56.163Z,92.10
2023-01-10T23:26:22.840Z,92.01
2023-01-10T23:28:50.930Z,92.23
2023-01-10T23:31:23.182Z,92.43
2023-01-10T23:33:51.748Z,92.77
2023-01-10T23:36:18.914Z,92.37
2023-01-10T23:38:45.711Z,92.24
2023-01-10T23:41:12.626Z,92.45
2023-01-10T23:43:39.148Z,92.14
2023-01-10T23:46:06.891Z,92.28
2023-01-10T23:48:33.763Z,92.35
2023-01-10T23:51:00.315Z,92.17
2023-01-10T23:53:26.780Z,92.18
2023-01-10T23:55:53.313Z,91.82
2023-01-10T23:58:20.027Z,91.77
